createdAt,value
2022-10-04T00:02:31.344Z,100.00
2022-10-04T00:05:12.426Z,100.00
2022-10-04T00:07:51.121Z,100.00
2022-10-04T00:10:31.459Z,100.00
2022-10-04T00:13:25.908Z,100.00
2022-10-04T00:15:53.472Z,100.00
2022-10-04T00:18:39.241Z,100.00
2022-10-04T00:21:09.891Z,100.00
2022-10-04T00:23:36.870Z,100.00
2022-10-04T00:26:26.005Z,100.00
2022-10-04T00:28:55.488Z,100.00
2022-10-04T00:31:29.255Z,100.00
2022-10-04T00:34:18.854Z,100.00
2022-10-04T00:36:56.017Z,100.00
2022-10-04T00:39:42.534Z,100.00
2022-10-04T00:42:55.949Z,100.00
2022-10-04T00:46:01.053Z,100.00
2022-10-04T00:48:56.534Z,100.00
2022-10-04T00:51:38.683Z,100.00
2022-10-04T00:54:42.384Z,100.00
2022-10-04T00:57:28.089Z,100.00
2022-10-04T01:00:16.787Z,100.00
2022-10-04T01:02:46.840Z,100.00
2022-10-04T01:05:34.185Z,100.00
2022-10-04T01:08:25.424Z,100.00
2022-10-04T01:11:35.111Z,100.00
2022-10-04T01:14:23.945Z,100.00
2022-10-04T01:16:52.441Z,100.00
2022-10-04T01:19:22.539Z,100.00
2022-10-04T01:22:09.775Z,100.00
2022-10-04T01:24:44.085Z,100.00
2022-10-04T01:27:43.699Z,100.00
2022-10-04T01:30:17.507Z,100.00
2022-10-04T01:32:45.611Z,100.00
2022-10-04T01:35:15.507Z,100.00
2022-10-04T01:37:42.832Z,100.00
2022-10-04T01:40:11.200Z,100.00
2022-10-04T01:42:50.195Z,100.00
2022-10-04T01:45:50.270Z,100.00
2022-10-04T01:48:26.187Z,100.00
2022-10-04T01:51:27.457Z,100.00
2022-10-04T01:54:04.974Z,100.00
2022-10-04T01:56:57.813Z,100.00
2022-10-04T01:59:39.920Z,100.00
2022-10-04T02:02:41.022Z,100.00
2022-10-04T02:05:18.916Z,100.00
2022-10-04T02:07:48.884Z,100.00
2022-10-04T02:10:23.143Z,100.00
2022-10-04T02:12:54.822Z,100.00
2022-10-04T02:15:27.620Z,100.00
2022-10-04T02:17:57.960Z,100.00
2022-10-04T02:20:28.219Z,100.00
2022-10-04T02:23:03.198Z,100.00
2022-10-04T02:25:31.021Z,100.00
2022-10-04T02:27:58.459Z,100.00
2022-10-04T02:30:25.836Z,100.00
2022-10-04T02:32:58.119Z,100.00
2022-10-04T02:35:43.130Z,100.00
2022-10-04T02:38:13.188Z,100.00
2022-10-04T02:40:57.152Z,100.00
2022-10-04T02:43:56.607Z,100.00
2022-10-04T02:46:38.734Z,100.00
2022-10-04T02:49:32.791Z,100.00
2022-10-04T02:52:34.316Z,100.00
2022-10-04T02:55:31.773Z,100.00
2022-10-04T02:58:01.957Z,100.00
2022-10-04T03:00:32.318Z,100.00
2022-10-04T03:03:31.748Z,100.00
2022-10-04T03:06:14.784Z,100.00
2022-10-04T03:09:02.224Z,100.00
2022-10-04T03:11:40.534Z,100.00
2022-10-04T03:14:22.170Z,100.00
2022-10-04T03:16:57.950Z,100.00
2022-10-04T03:19:29.844Z,100.00
2022-10-04T03:22:07.087Z,100.00
2022-10-04T03:24:54.228Z,100.00
2022-10-04T03:27:30.934Z,100.00
2022-10-04T03:29:59.599Z,100.00
2022-10-04T03:32:30.439Z,100.00
2022-10-04T03:35:07.794Z,100.00
2022-10-04T03:37:38.039Z,100.00
2022-10-04T03:40:09.903Z,100.00
2022-10-04T03:42:38.813Z,100.00
2022-10-04T03:45:18.750Z,100.00
2022-10-04T03:47:50.546Z,100.00
2022-10-04T03:50:36.971Z,100.00
2022-10-04T03:53:25.812Z,100.00
2022-10-04T03:55:53.421Z,100.00
2022-10-04T03:58:22.648Z,100.00
2022-10-04T04:01:33.778Z,100.00
2022-10-04T04:04:35.728Z,100.00
2022-10-04T04:07:37.892Z,100.00
2022-10-04T04:10:23.644Z,100.00
2022-10-04T04:13:17.149Z,100.00
2022-10-04T04:15:45.672Z,100.00
2022-10-04T04:18:23.170Z,100.00
2022-10-04T04:20:56.836Z,100.00
2022-10-04T04:23:48.717Z,100.00
2022-10-04T04:26:50.059Z,100.00
2022-10-04T04:29:52.025Z,100.00
2022-10-04T04:32:33.317Z,100.00
2022-10-04T04:35:08.478Z,100.00
2022-10-04T04:37:38.377Z,100.00
2022-10-04T04:40:24.489Z,100.00
2022-10-04T04:42:52.595Z,100.00
2022-10-04T04:45:25.927Z,100.00
2022-10-04T04:47:58.693Z,100.00
2022-10-04T04:50:37.801Z,100.00
2022-10-04T04:53:23.638Z,100.00
2022-10-04T04:56:05.086Z,100.00
2022-10-04T04:58:46.570Z,100.00
2022-10-04T05:01:47.594Z,100.00
2022-10-04T05:04:19.048Z,100.00
2022-10-04T05:07:17.043Z,100.00
2022-10-04T05:09:44.301Z,100.00
2022-10-04T05:12:23.174Z,100.00
2022-10-04T05:14:54.412Z,100.00
2022-10-04T05:17:33.681Z,100.00
2022-10-04T05:20:02.738Z,100.00
2022-10-04T05:22:32.737Z,100.00
2022-10-04T05:25:10.483Z,100.00
2022-10-04T05:27:44.652Z,100.00
2022-10-04T05:31:24.141Z,100.00
2022-10-04T05:33:58.641Z,100.00
2022-10-04T05:37:06.621Z,100.00
2022-10-04T05:40:13.327Z,100.00
2022-10-04T05:42:49.412Z,100.00
2022-10-04T05:45:30.708Z,100.00
2022-10-04T05:48:01.959Z,100.00
2022-10-04T05:50:40.701Z,100.00
2022-10-04T05:53:33.517Z,100.00
2022-10-04T05:56:28.164Z,100.00
2022-10-04T05:59:37.952Z,100.00
2022-10-04T06:02:51.859Z,100.00
2022-10-04T06:06:05.281Z,100.00
2022-10-04T06:09:10.388Z,100.00
2022-10-04T06:12:20.778Z,100.00
2022-10-04T06:15:41.329Z,100.00
2022-10-04T06:19:06.438Z,100.00
2022-10-04T06:22:03.179Z,100.00
2022-10-04T06:24:39.884Z,100.00
2022-10-04T06:27:36.822Z,100.00
2022-10-04T06:30:19.115Z,100.00
2022-10-04T06:33:24.608Z,100.00
2022-10-04T06:36:34.652Z,100.00
2022-10-04T06:40:17.384Z,100.00
2022-10-04T06:43:20.576Z,100.00
2022-10-04T06:46:43.132Z,100.00
2022-10-04T06:50:01.850Z,100.00
2022-10-04T06:53:40.164Z,100.00
2022-10-04T06:57:03.698Z,100.00
2022-10-04T07:00:18.838Z,100.00
2022-10-04T07:03:13.870Z,100.00
2022-10-04T07:06:05.051Z,100.00
2022-10-04T07:08:52.883Z,100.00
2022-10-04T07:11:45.854Z,100.00
2022-10-04T07:14:35.532Z,100.00
2022-10-04T07:17:13.299Z,100.00
2022-10-04T07:19:49.768Z,100.00
2022-10-04T07:22:58.270Z,100.00
2022-10-04T07:25:36.376Z,100.00
2022-10-04T07:28:28.561Z,100.00
2022-10-04T07:31:00.559Z,100.00
2022-10-04T07:33:33.858Z,100.00
2022-10-04T07:36:46.391Z,100.00
2022-10-04T07:39:45.979Z,100.00
2022-10-04T07:42:53.136Z,100.00
2022-10-04T07:45:41.678Z,100.00
2022-10-04T07:48:23.114Z,100.00
2022-10-04T07:51:37.085Z,100.00
2022-10-04T07:55:05.550Z,100.00
2022-10-04T07:58:35.452Z,100.00
2022-10-04T08:01:33.224Z,100.00
2022-10-04T08:04:44.417Z,100.00
2022-10-04T08:07:54.688Z,100.00
2022-10-04T08:10:57.405Z,100.00
2022-10-04T08:14:04.895Z,100.00
2022-10-04T08:17:15.386Z,100.00
2022-10-04T08:20:22.322Z,100.00
2022-10-04T08:23:23.995Z,100.00
2022-10-04T08:26:34.154Z,100.00
2022-10-04T08:29:51.828Z,100.00
2022-10-04T08:32:50.106Z,100.00
2022-10-04T08:35:47.844Z,100.00
2022-10-04T08:38:52.331Z,100.00
2022-10-04T08:42:41.811Z,100.00
2022-10-04T08:45:58.884Z,100.00
2022-10-04T08:49:48.957Z,100.00
2022-10-04T08:53:42.254Z,100.00
2022-10-04T08:57:16.021Z,100.00
2022-10-04T09:00:59.685Z,100.00
2022-10-04T09:04:15.915Z,100.00
2022-10-04T09:07:45.676Z,100.00
2022-10-04T09:10:36.705Z,100.00
2022-10-04T09:13:36.467Z,100.00
2022-10-04T09:17:03.847Z,100.00
2022-10-04T09:20:51.985Z,100.00
2022-10-04T09:25:09.486Z,100.00
2022-10-04T09:28:40.430Z,100.00
2022-10-04T09:32:04.977Z,100.00
2022-10-04T09:35:47.353Z,100.00
2022-10-04T09:39:29.546Z,100.00
2022-10-04T09:42:26.585Z,100.00
2022-10-04T09:45:59.456Z,100.00
2022-10-04T09:48:53.513Z,100.00
2022-10-04T09:52:08.968Z,100.00
2022-10-04T09:55:30.895Z,100.00
2022-10-04T09:58:52.838Z,100.00
2022-10-04T10:02:04.467Z,100.00
2022-10-04T10:05:01.148Z,100.00
2022-10-04T10:08:09.773Z,100.00
2022-10-04T10:11:25.803Z,100.00
2022-10-04T10:14:38.550Z,100.00
2022-10-04T10:17:30.181Z,100.00
2022-10-04T10:20:35.782Z,100.00
2022-10-04T10:23:47.881Z,100.00
2022-10-04T10:26:53.448Z,99.71
2022-10-04T10:29:49.512Z,97.81
2022-10-04T10:32:39.024Z,99.25
2022-10-04T10:36:34.992Z,96.14
2022-10-04T10:40:03.071Z,94.50
2022-10-04T10:44:09.081Z,91.17
2022-10-04T10:47:42.589Z,84.38
2022-10-04T10:51:12.761Z,86.40
2022-10-04T10:54:56.440Z,83.42
2022-10-04T10:57:59.536Z,80.91
2022-10-04T11:01:25.805Z,79.78
2022-10-04T11:05:18.460Z,81.05
2022-10-04T11:08:37.288Z,78.12
2022-10-04T11:12:17.437Z,74.93
2022-10-04T11:15:44.279Z,76.23
2022-10-04T11:18:48.156Z,71.98
2022-10-04T11:22:54.148Z,71.68
2022-10-04T11:26:57.031Z,70.64
2022-10-04T11:30:26.575Z,67.66
2022-10-04T11:33:54.225Z,67.02
2022-10-04T11:36:56.342Z,66.88
2022-10-04T11:40:13.012Z,65.74
2022-10-04T11:43:55.027Z,63.76
2022-10-04T11:47:00.843Z,65.70
2022-10-04T11:50:32.857Z,63.52
2022-10-04T11:53:54.750Z,58.55
2022-10-04T11:57:09.088Z,60.67
2022-10-04T12:00:10.617Z,62.17
2022-10-04T12:04:18.160Z,63.08
2022-10-04T12:07:22.799Z,61.44
2022-10-04T12:10:20.255Z,58.72
2022-10-04T12:12:54.217Z,58.65
2022-10-04T12:16:37.052Z,57.65
2022-10-04T12:20:32.362Z,57.16
2022-10-04T12:23:47.225Z,59.69
2022-10-04T12:27:26.399Z,57.34
2022-10-04T12:30:31.491Z,55.92
2022-10-04T12:33:24.631Z,56.22
2022-10-04T12:37:13.755Z,55.60
2022-10-04T12:39:58.452Z,55.65
2022-10-04T12:43:10.039Z,55.55
2022-10-04T12:46:36.938Z,54.32
2022-10-04T12:49:32.124Z,53.78
2022-10-04T12:52:18.516Z,56.11
2022-10-04T12:56:07.896Z,56.22
2022-10-04T12:58:57.463Z,51.16
2022-10-04T13:02:16.030Z,52.90
2022-10-04T13:05:52.310Z,56.09
2022-10-04T13:09:11.289Z,54.27
2022-10-04T13:13:38.544Z,52.65
2022-10-04T13:17:33.328Z,52.37
2022-10-04T13:20:51.901Z,53.06
2022-10-04T13:24:08.138Z,52.86
2022-10-04T13:27:14.064Z,55.16
2022-10-04T13:30:23.698Z,51.40
2022-10-04T13:33:37.883Z,51.38
2022-10-04T13:37:20.568Z,51.85
2022-10-04T13:40:50.734Z,50.98
2022-10-04T13:44:08.076Z,52.56
2022-10-04T13:47:37.994Z,54.96
2022-10-04T13:51:07.429Z,56.68
2022-10-04T13:54:33.941Z,57.71
2022-10-04T13:58:01.522Z,55.64
2022-10-04T14:01:37.406Z,54.67
2022-10-04T14:04:16.965Z,55.86
2022-10-04T14:07:35.305Z,57.51
2022-10-04T14:11:16.790Z,55.61
2022-10-04T14:14:57.884Z,56.63
2022-10-04T14:18:17.079Z,56.43
2022-10-04T14:21:47.425Z,57.44
2022-10-04T14:24:36.942Z,57.54
2022-10-04T14:28:14.331Z,56.25
2022-10-04T14:31:46.676Z,57.41
2022-10-04T14:35:21.900Z,57.94
2022-10-04T14:38:38.216Z,57.50
2022-10-04T14:42:12.540Z,56.82
2022-10-04T14:45:47.634Z,57.56
2022-10-04T14:49:19.783Z,57.91
2022-10-04T14:52:37.951Z,57.27
2022-10-04T14:55:59.428Z,56.76
2022-10-04T14:59:15.113Z,56.12
2022-10-04T15:02:31.246Z,54.75
2022-10-04T15:05:39.050Z,54.55
2022-10-04T15:08:21.480Z,56.01
2022-10-04T15:11:08.701Z,56.36
2022-10-04T15:13:48.008Z,55.62
2022-10-04T15:16:52.978Z,54.73
2022-10-04T15:19:30.384Z,54.49
2022-10-04T15:22:31.510Z,54.67
2022-10-04T15:24:59.483Z,53.88
2022-10-04T15:27:50.417Z,55.24
2022-10-04T15:31:04.842Z,55.17
2022-10-04T15:34:05.226Z,54.73
2022-10-04T15:37:15.322Z,54.84
2022-10-04T15:40:56.995Z,55.26
2022-10-04T15:44:00.872Z,55.49
2022-10-04T15:47:12.466Z,56.33
2022-10-04T15:50:54.024Z,55.62
2022-10-04T15:54:10.989Z,56.13
2022-10-04T15:56:41.111Z,57.24
2022-10-04T15:59:49.422Z,58.09
2022-10-04T16:03:09.983Z,57.98
2022-10-04T16:06:23.967Z,59.23
2022-10-04T16:09:57.942Z,59.05
2022-10-04T16:13:20.921Z,60.05
2022-10-04T16:16:16.934Z,61.77
2022-10-04T16:19:11.442Z,61.66
2022-10-04T16:21:47.499Z,61.90
2022-10-04T16:24:20.585Z,63.70
2022-10-04T16:26:48.316Z,62.95
2022-10-04T16:29:43.689Z,64.61
2022-10-04T16:32:21.646Z,64.81
2022-10-04T16:35:10.220Z,66.42
2022-10-04T16:38:14.442Z,67.88
2022-10-04T16:41:13.446Z,68.99
2022-10-04T16:43:55.437Z,70.34
2022-10-04T16:46:44.942Z,71.17
2022-10-04T16:49:41.750Z,72.02
2022-10-04T16:52:48.200Z,74.08
2022-10-04T16:55:57.088Z,75.07
2022-10-04T16:58:27.242Z,76.90
2022-10-04T17:02:06.732Z,78.27
2022-10-04T17:05:33.095Z,81.45
2022-10-04T17:09:02.892Z,82.61
2022-10-04T17:12:29.315Z,84.40
2022-10-04T17:15:14.471Z,85.53
2022-10-04T17:18:26.059Z,87.40
2022-10-04T17:21:08.326Z,88.70
2022-10-04T17:24:20.051Z,89.44
2022-10-04T17:27:41.071Z,90.96
2022-10-04T17:30:27.722Z,91.09
2022-10-04T17:33:48.272Z,94.49
2022-10-04T17:36:37.343Z,93.30
2022-10-04T17:39:59.029Z,94.01
2022-10-04T17:43:05.887Z,94.36
2022-10-04T17:46:10.729Z,94.70
2022-10-04T17:49:34.186Z,96.27
2022-10-04T17:52:31.665Z,97.71
2022-10-04T17:55:31.112Z,100.00
2022-10-04T17:58:24.224Z,97.88
2022-10-04T18:01:08.613Z,100.00
2022-10-04T18:03:53.597Z,100.00
2022-10-04T18:07:17.273Z,100.00
2022-10-04T18:10:02.537Z,100.00
2022-10-04T18:13:12.951Z,100.00
2022-10-04T18:16:15.348Z,100.00
2022-10-04T18:18:45.722Z,100.00
2022-10-04T18:21:15.828Z,100.00
2022-10-04T18:24:16.841Z,100.00
2022-10-04T18:27:24.302Z,100.00
2022-10-04T18:30:18.786Z,100.00
2022-10-04T18:32:57.489Z,100.00
2022-10-04T18:35:33.718Z,100.00
2022-10-04T18:38:28.209Z,100.00
2022-10-04T18:41:20.361Z,100.00
2022-10-04T18:44:13.539Z,100.00
2022-10-04T18:46:46.764Z,100.00
2022-10-04T18:49:32.919Z,100.00
2022-10-04T18:53:24.102Z,100.00
2022-10-04T18:56:11.957Z,100.00
2022-10-04T19:00:00.294Z,100.00
2022-10-04T19:03:30.205Z,100.00
2022-10-04T19:06:32.865Z,100.00
2022-10-04T19:09:50.934Z,100.00
2022-10-04T19:13:17.187Z,100.00
2022-10-04T19:16:24.926Z,100.00
2022-10-04T19:19:20.288Z,100.00
2022-10-04T19:22:27.577Z,100.00
2022-10-04T19:25:39.959Z,100.00
2022-10-04T19:28:27.141Z,100.00
2022-10-04T19:31:26.642Z,100.00
2022-10-04T19:34:19.147Z,100.00
2022-10-04T19:37:50.757Z,100.00
2022-10-04T19:40:50.302Z,100.00
2022-10-04T19:44:06.362Z,100.00
2022-10-04T19:47:04.482Z,100.00
2022-10-04T19:50:06.721Z,100.00
2022-10-04T19:52:55.798Z,100.00
2022-10-04T19:56:06.272Z,100.00
2022-10-04T19:59:10.933Z,100.00
2022-10-04T20:01:38.768Z,100.00
2022-10-04T20:04:35.899Z,100.00
2022-10-04T20:07:24.201Z,100.00
2022-10-04T20:10:33.727Z,100.00
2022-10-04T20:13:30.381Z,100.00
2022-10-04T20:15:59.808Z,100.00
2022-10-04T20:18:33.013Z,100.00
2022-10-04T20:21:00.261Z,100.00
2022-10-04T20:23:39.385Z,100.00
2022-10-04T20:26:53.377Z,100.00
2022-10-04T20:29:39.752Z,100.00
2022-10-04T20:32:42.065Z,100.00
2022-10-04T20:35:54.231Z,100.00
2022-10-04T20:38:41.425Z,100.00
2022-10-04T20:41:28.431Z,100.00
2022-10-04T20:44:02.568Z,100.00
2022-10-04T20:46:38.928Z,100.00
2022-10-04T20:49:18.686Z,100.00
2022-10-04T20:51:50.376Z,100.00
2022-10-04T20:54:22.544Z,100.00
2022-10-04T20:56:51.506Z,100.00
2022-10-04T20:59:19.071Z,100.00
2022-10-04T21:02:12.165Z,100.00
2022-10-04T21:04:44.302Z,100.00
2022-10-04T21:07:21.425Z,100.00
2022-10-04T21:09:50.136Z,100.00
2022-10-04T21:12:35.138Z,100.00
2022-10-04T21:15:20.260Z,100.00
2022-10-04T21:18:10.879Z,100.00
2022-10-04T21:20:56.269Z,100.00
2022-10-04T21:23:34.237Z,100.00
2022-10-04T21:26:25.055Z,100.00
2022-10-04T21:28:58.510Z,100.00
2022-10-04T21:31:26.298Z,100.00
2022-10-04T21:33:53.740Z,100.00
2022-10-04T21:36:21.206Z,100.00
2022-10-04T21:38:48.542Z,100.00
2022-10-04T21:41:15.812Z,100.00
2022-10-04T21:43:43.080Z,100.00
2022-10-04T21:46:16.458Z,100.00
2022-10-04T21:48:46.739Z,100.00
2022-10-04T21:51:14.032Z,100.00
2022-10-04T21:53:41.305Z,100.00
2022-10-04T21:56:08.710Z,100.00
2022-10-04T21:58:35.962Z,100.00
2022-10-04T22:01:03.534Z,100.00
2022-10-04T22:03:30.840Z,100.00
2022-10-04T22:05:58.126Z,100.00
2022-10-04T22:08:25.388Z,100.00
2022-10-04T22:10:57.445Z,100.00
2022-10-04T22:13:26.714Z,100.00
2022-10-04T22:15:55.915Z,100.00
2022-10-04T22:18:23.436Z,100.00
2022-10-04T22:20:50.695Z,100.00
2022-10-04T22:23:27.353Z,100.00
2022-10-04T22:25:56.360Z,100.00
2022-10-04T22:28:30.810Z,100.00
2022-10-04T22:30:58.724Z,100.00
2022-10-04T22:33:36.041Z,100.00
2022-10-04T22:36:36.613Z,100.00
2022-10-04T22:39:10.063Z,100.00
2022-10-04T22:41:57.603Z,100.00
2022-10-04T22:44:45.725Z,100.00
2022-10-04T22:47:17.049Z,100.00
2022-10-04T22:49:50.174Z,100.00
2022-10-04T22:52:24.106Z,100.00
2022-10-04T22:54:55.632Z,100.00
2022-10-04T22:57:25.795Z,100.00
2022-10-04T22:59:54.010Z,100.00
2022-10-04T23:02:29.263Z,100.00
2022-10-04T23:05:21.924Z,100.00
2022-10-04T23:07:49.522Z,100.00
2022-10-04T23:10:20.019Z,100.00
2022-10-04T23:12:49.473Z,100.00
2022-10-04T23:15:20.745Z,100.00
2022-10-04T23:17:57.796Z,100.00
2022-10-04T23:20:25.055Z,100.00
2022-10-04T23:22:54.480Z,100.00
2022-10-04T23:25:30.833Z,100.00
2022-10-04T23:28:17.011Z,100.00
2022-10-04T23:30:50.591Z,100.00
2022-10-04T23:33:23.761Z,100.00
2022-10-04T23:35:53.559Z,100.00
2022-10-04T23:38:24.770Z,100.00
2022-10-04T23:40:52.097Z,100.00
2022-10-04T23:43:25.157Z,100.00
2022-10-04T23:45:58.604Z,100.00
2022-10-04T23:48:31.933Z,100.00
2022-10-04T23:51:00.867Z,100.00
2022-10-04T23:53:33.857Z,100.00
2022-10-04T23:56:18.381Z,100.00
2022-10-04T23:58:46.959Z,100.00
